Time;durP1;ratioP1;P1;durP2;ratioP2;P2;SDS_P1;SDS_P2;PMS_P1;PMS_P2;Temp;Humidity;BMP_temperature;BMP_pressure;BME280_temperature;BME280_humidity;BME280_pressure;Samples;Min_cycle;Max_cycle;Signal;HPM_P1;HPM_P2
2021/10/11 00:00:33;;;;;;;14.95;7.95;;;;;;;-0.93;100.00;93849.50;2098684;28;20028;-82
2021/10/11 00:01:34;;;;;;;14.63;8.68;;;;;;;-0.94;100.00;93858.47;2098760;28;20059;-82
2021/10/11 00:02:35;;;;;;;12.98;8.63;;;;;;;-0.81;100.00;93848.78;2098676;28;20025;-82
2021/10/11 00:03:38;;;;;;;12.70;8.23;;;;;;;-0.76;100.00;93856.44;2091088;28;20028;-82
2021/10/11 00:04:39;;;;;;;15.27;8.50;;;;;;;-0.93;100.00;93853.97;2090756;28;20417;-80
2021/10/11 00:05:40;;;;;;;12.18;7.85;;;;;;;-0.89;100.00;93852.25;2090546;28;20456;-83
2021/10/11 00:06:41;;;;;;;11.52;8.18;;;;;;;-0.90;100.00;93850.72;2098831;28;20021;-82
2021/10/11 00:07:42;;;;;;;16.20;8.82;;;;;;;-0.90;100.00;93851.47;2102722;28;20505;-82
2021/10/11 00:08:43;;;;;;;16.83;8.52;;;;;;;-0.82;100.00;93852.50;2115405;28;20824;-81
2021/10/11 00:09:44;;;;;;;12.40;7.78;;;;;;;-0.83;100.00;93856.22;2107102;28;20041;-83
2021/10/11 00:10:51;;;;;;;14.93;8.45;;;;;;;-0.92;100.00;93848.44;2115663;28;20422;-81
2021/10/11 00:11:52;;;;;;;13.48;8.13;;;;;;;-1.02;100.00;93854.06;2107944;28;20027;-81
2021/10/11 00:12:54;;;;;;;12.90;8.25;;;;;;;-0.89;100.00;93858.25;2106902;28;20106;-81
2021/10/11 00:13:55;;;;;;;12.15;8.10;;;;;;;-1.10;100.00;93850.47;2115608;28;20030;-81
2021/10/11 00:14:58;;;;;;;11.73;8.43;;;;;;;-1.00;100.00;93853.75;2115454;28;20020;-82
2021/10/11 00:15:59;;;;;;;12.57;8.43;;;;;;;-0.94;100.00;93847.22;2115418;28;20076;-83
2021/10/11 00:17:00;;;;;;;11.57;8.20;;;;;;;-0.93;100.00;93846.88;2115460;28;20027;-82
2021/10/11 00:18:00;;;;;;;13.05;8.25;;;;;;;-0.98;100.00;93846.31;2110535;28;20057;-82
2021/10/11 00:19:03;;;;;;;12.80;8.30;;;;;;;-0.90;100.00;93843.59;2123955;27;20011;-83
2021/10/11 00:20:05;;;;;;;13.63;8.05;;;;;;;-1.05;100.00;93846.88;2124036;27;20495;-81
2021/10/11 00:21:06;;;;;;;13.57;7.82;;;;;;;-1.06;100.00;93853.94;2132427;27;20023;-82
2021/10/11 00:22:07;;;;;;;10.93;7.45;;;;;;;-0.99;100.00;93840.31;2123801;27;20019;-81
2021/10/11 00:23:10;;;;;;;12.73;8.88;;;;;;;-0.93;100.00;93848.72;2115451;28;20089;-81
2021/10/11 00:24:10;;;;;;;12.00;7.97;;;;;;;-0.91;100.00;93849.19;2115767;27;20019;-82
2021/10/11 00:25:11;;;;;;;12.70;7.20;;;;;;;-0.91;100.00;93841.31;2115299;28;20023;-81
2021/10/11 00:26:13;;;;;;;11.95;8.05;;;;;;;-0.98;100.00;93841.84;2115559;28;20020;-81
2021/10/11 00:27:14;;;;;;;9.60;7.85;;;;;;;-0.97;100.00;93847.84;2116554;27;20058;-82
2021/10/11 00:28:15;;;;;;;11.02;8.00;;;;;;;-1.05;100.00;93846.88;2123772;27;20025;-82
2021/10/11 00:29:16;;;;;;;12.48;8.20;;;;;;;-0.97;100.00;93845.22;2122317;27;20495;-81
2021/10/11 00:30:17;;;;;;;11.60;8.30;;;;;;;-1.00;100.00;93846.66;2115332;28;20442;-81
2021/10/11 00:31:17;;;;;;;12.00;8.30;;;;;;;-1.18;100.00;93840.06;2117078;27;20440;-81
2021/10/11 00:32:18;;;;;;;11.77;8.02;;;;;;;-1.22;100.00;93847.03;2123841;27;20019;-81
2021/10/11 00:33:19;;;;;;;11.30;8.30;;;;;;;-1.23;100.00;93838.38;2124056;27;20057;-80
2021/10/11 00:34:20;;;;;;;13.20;8.23;;;;;;;-1.23;100.00;93841.00;2123736;27;20056;-81
2021/10/11 00:35:21;;;;;;;13.18;7.97;;;;;;;-1.15;100.00;93842.00;2115351;28;20024;-82
2021/10/11 00:36:23;;;;;;;11.60;7.97;;;;;;;-1.10;100.00;93844.41;2115315;28;20027;-81
2021/10/11 00:37:24;;;;;;;11.52;8.38;;;;;;;-0.96;100.00;93852.03;2123644;27;20030;-82
2021/10/11 00:38:25;;;;;;;12.90;7.65;;;;;;;-1.03;100.00;93842.81;2106880;28;20044;-82
2021/10/11 00:39:26;;;;;;;14.60;9.00;;;;;;;-0.99;100.00;93848.19;2106747;28;20026;-82
2021/10/11 00:40:27;;;;;;;13.38;8.43;;;;;;;-1.03;100.00;93852.53;2106966;28;20035;-83
2021/10/11 00:41:31;;;;;;;11.50;8.13;;;;;;;-1.02;100.00;93849.59;2115308;28;20023;-82
2021/10/11 00:42:32;;;;;;;9.48;7.70;;;;;;;-1.07;100.00;93852.41;2115786;27;20024;-82
2021/10/11 00:43:33;;;;;;;11.52;8.07;;;;;;;-1.04;100.00;93862.28;2106819;28;20103;-81
2021/10/11 00:44:34;;;;;;;13.20;8.40;;;;;;;-1.10;100.00;93858.34;2098401;28;20023;-81
2021/10/11 00:45:35;;;;;;;11.80;8.48;;;;;;;-1.09;100.00;93862.47;2098419;28;20039;-83
2021/10/11 00:46:36;;;;;;;12.88;7.47;;;;;;;-1.15;100.00;93855.13;2098323;28;20389;-81
2021/10/11 00:47:37;;;;;;;12.77;7.95;;;;;;;-1.11;100.00;93861.25;2097423;28;20021;-83
2021/10/11 00:48:38;;;;;;;11.90;8.10;;;;;;;-1.15;100.00;93858.50;2106597;28;20423;-83
2021/10/11 00:49:39;;;;;;;9.32;7.70;;;;;;;-1.11;100.00;93861.25;2115124;28;20027;-82
2021/10/11 00:50:40;;;;;;;13.35;8.75;;;;;;;-1.02;100.00;93865.31;2106704;28;20084;-82
2021/10/11 00:51:42;;;;;;;12.95;8.38;;;;;;;-1.13;100.00;93863.44;2120077;27;20113;-80
2021/10/11 00:52:43;;;;;;;13.02;8.30;;;;;;;-1.11;100.00;93867.28;2128894;27;20026;-82
2021/10/11 00:53:44;;;;;;;12.60;8.57;;;;;;;-1.15;100.00;93868.25;2118179;27;20446;-81
2021/10/11 00:54:45;;;;;;;9.27;7.78;;;;;;;-1.17;100.00;93860.69;2120692;27;20114;-82
2021/10/11 00:55:47;;;;;;;11.95;7.97;;;;;;;-1.16;100.00;93859.59;2121544;27;20114;-83
2021/10/11 00:56:48;;;;;;;14.23;8.15;;;;;;;-1.08;100.00;93865.88;2106748;28;20027;-80
2021/10/11 00:57:49;;;;;;;12.27;8.80;;;;;;;-1.16;100.00;93866.72;2123828;27;20050;-82
2021/10/11 00:58:50;;;;;;;14.10;8.40;;;;;;;-1.17;100.00;93865.94;2123591;27;20449;-83
2021/10/11 00:59:51;;;;;;;16.75;8.95;;;;;;;-1.14;100.00;93864.53;2123508;27;20019;-82
2021/10/11 01:00:54;;;;;;;14.25;9.10;;;;;;;-1.09;100.00;93870.34;2114859;28;20023;-81
2021/10/11 01:01:55;;;;;;;13.18;8.15;;;;;;;-1.09;100.00;93862.47;2115352;27;20016;-82
2021/10/11 01:02:55;;;;;;;12.93;9.00;;;;;;;-1.16;100.00;93856.22;2123588;27;20054;-80
2021/10/11 01:03:58;;;;;;;10.73;7.75;;;;;;;-1.20;100.00;93855.31;2113643;28;20428;-83
2021/10/11 01:05:00;;;;;;;11.43;8.27;;;;;;;-1.10;100.00;93865.41;2106906;28;20404;-84
2021/10/11 01:06:04;;;;;;;12.18;8.70;;;;;;;-1.07;100.00;93857.66;2115924;27;20053;-82
2021/10/11 01:07:05;;;;;;;15.60;9.25;;;;;;;-1.04;100.00;93858.88;2123477;27;20034;-81
2021/10/11 01:08:07;;;;;;;13.82;8.32;;;;;;;-1.06;100.00;93859.19;2106514;27;20463;-83
2021/10/11 01:09:09;;;;;;;13.40;8.57;;;;;;;-1.20;100.00;93857.94;2123314;27;20391;-82
2021/10/11 01:10:10;;;;;;;12.50;8.48;;;;;;;-1.18;100.00;93855.78;2115571;27;20027;-81
2021/10/11 01:11:11;;;;;;;15.00;8.43;;;;;;;-1.20;100.00;93853.47;2107313;28;20479;-81
2021/10/11 01:12:12;;;;;;;13.15;8.40;;;;;;;-1.27;100.00;93846.13;2106665;28;20416;-82
2021/10/11 01:13:14;;;;;;;13.02;8.57;;;;;;;-1.37;100.00;93853.63;2114958;28;20027;-84
2021/10/11 01:14:15;;;;;;;12.93;8.88;;;;;;;-1.24;100.00;93852.56;2115146;27;20143;-83
2021/10/11 01:15:16;;;;;;;13.68;8.48;;;;;;;-1.25;100.00;93850.28;2115060;28;20023;-84
2021/10/11 01:16:17;;;;;;;13.70;9.00;;;;;;;-1.23;100.00;93845.47;2114976;28;20050;-83
2021/10/11 01:17:18;;;;;;;12.48;8.55;;;;;;;-1.21;100.00;93845.94;2115000;28;20019;-82
2021/10/11 01:18:19;;;;;;;12.57;8.15;;;;;;;-1.17;100.00;93849.44;2123541;27;20015;-83
2021/10/11 01:19:20;;;;;;;12.40;8.63;;;;;;;-1.22;100.00;93847.78;2123682;27;20487;-82
2021/10/11 01:20:23;;;;;;;10.60;8.43;;;;;;;-1.25;100.00;93840.56;2114948;28;20047;-82
2021/10/11 01:21:24;;;;;;;11.95;8.43;;;;;;;-1.29;100.00;93840.44;2106770;28;20016;-82
2021/10/11 01:22:37;;;;;;;12.05;8.35;;;;;;;-1.21;100.00;93846.69;2109049;28;20031;-83
2021/10/11 01:23:38;;;;;;;11.02;8.07;;;;;;;-1.22;100.00;93847.03;2120899;27;20026;-81
2021/10/11 01:24:38;;;;;;;11.82;8.48;;;;;;;-1.15;100.00;93840.16;2114898;28;20464;-84
2021/10/11 01:25:39;;;;;;;12.75;8.75;;;;;;;-1.13;100.00;93845.84;2122273;27;20019;-80
2021/10/11 01:26:43;;;;;;;12.88;8.00;;;;;;;-1.13;100.00;93843.22;2118176;27;20047;-82
2021/10/11 01:27:44;;;;;;;11.85;8.60;;;;;;;-1.18;100.00;93851.31;2098753;28;20020;-83
2021/10/11 01:28:45;;;;;;;14.63;8.52;;;;;;;-1.15;100.00;93848.03;2098371;28;20103;-82
2021/10/11 01:29:46;;;;;;;11.73;8.82;;;;;;;-1.24;100.00;93844.72;2106521;27;20020;-82
2021/10/11 01:30:47;;;;;;;12.15;7.88;;;;;;;-1.22;100.00;93837.31;2114992;28;20111;-81
2021/10/11 01:31:49;;;;;;;11.70;8.13;;;;;;;-1.29;100.00;93839.66;2114910;28;20518;-82
2021/10/11 01:32:50;;;;;;;13.60;8.52;;;;;;;-1.36;100.00;93842.03;2106558;28;20114;-81
2021/10/11 01:33:51;;;;;;;11.80;8.13;;;;;;;-1.32;100.00;93843.72;2106403;28;20116;-84
2021/10/11 01:34:52;;;;;;;11.50;7.40;;;;;;;-1.33;100.00;93838.78;2112774;27;20619;-83
2021/10/11 01:35:53;;;;;;;10.98;8.07;;;;;;;-1.35;100.00;93838.34;2123277;27;20023;-84
2021/10/11 01:36:54;;;;;;;11.70;8.43;;;;;;;-1.31;100.00;93839.25;2106322;28;20016;-83
2021/10/11 01:37:55;;;;;;;15.98;8.73;;;;;;;-1.25;100.00;93840.56;2114722;28;20015;-82
2021/10/11 01:38:58;;;;;;;12.48;7.65;;;;;;;-1.28;100.00;93838.56;2123231;27;20160;-82
2021/10/11 01:39:59;;;;;;;15.55;8.90;;;;;;;-1.21;100.00;93827.56;2131911;27;20471;-83
2021/10/11 01:41:00;;;;;;;12.77;8.13;;;;;;;-1.33;100.00;93839.53;2132562;27;20034;-84
2021/10/11 01:42:01;;;;;;;11.50;8.15;;;;;;;-1.39;100.00;93822.50;2124143;27;20046;-82
2021/10/11 01:43:02;;;;;;;11.02;7.93;;;;;;;-1.30;100.00;93831.03;2131092;27;20023;-83
2021/10/11 01:44:04;;;;;;;15.57;8.07;;;;;;;-1.34;100.00;93822.28;2115094;27;20464;-84
2021/10/11 01:45:06;;;;;;;14.55;8.30;;;;;;;-1.43;100.00;93818.97;2123010;27;20042;-81
2021/10/11 01:46:07;;;;;;;9.70;8.25;;;;;;;-1.46;100.00;93813.59;2114780;28;20016;-82
2021/10/11 01:47:08;;;;;;;12.73;7.80;;;;;;;-1.48;100.00;93810.56;2123331;27;20443;-83
2021/10/11 01:48:09;;;;;;;13.13;7.68;;;;;;;-1.34;100.00;93814.41;2123459;27;20073;-83
2021/10/11 01:49:10;;;;;;;10.57;7.90;;;;;;;-1.29;100.00;93823.94;2123175;27;20042;-84
2021/10/11 01:50:11;;;;;;;12.80;8.02;;;;;;;-1.34;100.00;93826.75;2123426;27;20129;-82
2021/10/11 01:51:13;;;;;;;14.27;8.20;;;;;;;-1.35;100.00;93828.63;2123342;27;20016;-82
2021/10/11 01:52:14;;;;;;;14.63;8.18;;;;;;;-1.41;100.00;93824.66;2123094;27;20106;-84
2021/10/11 01:53:15;;;;;;;10.25;7.57;;;;;;;-1.46;100.00;93819.63;2123245;27;20072;-83
2021/10/11 01:54:16;;;;;;;12.50;7.72;;;;;;;-1.49;100.00;93819.47;2123161;27;20031;-83
2021/10/11 01:55:17;;;;;;;11.43;8.25;;;;;;;-1.44;100.00;93814.06;2123167;27;20019;-84
2021/10/11 01:56:18;;;;;;;13.18;8.35;;;;;;;-1.40;100.00;93814.97;2109820;28;20023;-84
2021/10/11 01:57:19;;;;;;;12.10;8.68;;;;;;;-1.32;100.00;93821.94;2121415;27;20030;-84
2021/10/11 01:58:20;;;;;;;14.50;9.18;;;;;;;-1.35;100.00;93820.00;2106228;28;20098;-81
2021/10/11 01:59:21;;;;;;;11.65;8.45;;;;;;;-1.35;100.00;93822.63;2108088;27;20631;-84
2021/10/11 02:00:22;;;;;;;11.45;8.02;;;;;;;-1.43;100.00;93823.47;2114754;28;20049;-83
2021/10/11 02:01:23;;;;;;;12.43;7.70;;;;;;;-1.39;100.00;93821.72;2106256;28;20016;-84
2021/10/11 02:02:24;;;;;;;14.32;8.93;;;;;;;-1.34;100.00;93821.53;2100180;28;20024;-84
2021/10/11 02:03:25;;;;;;;16.77;8.60;;;;;;;-1.28;100.00;93820.97;2114515;28;20114;-84
2021/10/11 02:04:26;;;;;;;12.93;8.75;;;;;;;-1.32;100.00;93812.25;2106273;28;20074;-84
2021/10/11 02:05:28;;;;;;;11.57;8.45;;;;;;;-1.30;100.00;93815.31;2112180;27;20019;-84
2021/10/11 02:07:52;;;;;;;;;;;;;;;-1.40;100.00;93820.97;2149107;27;20117;-86
2021/10/11 02:08:52;;;;;;;11.20;6.72;;;;;;;-1.48;100.00;93813.94;2139169;27;20421;-82
2021/10/11 02:09:53;;;;;;;12.15;8.23;;;;;;;-1.42;100.00;93819.75;2130647;27;20022;-82
2021/10/11 02:10:54;;;;;;;14.02;9.00;;;;;;;-1.47;100.00;93814.69;2130563;27;20568;-85
2021/10/11 02:11:55;;;;;;;11.75;7.97;;;;;;;-1.42;100.00;93814.50;2121984;27;20034;-84
2021/10/11 02:13:00;;;;;;;13.15;8.73;;;;;;;-1.39;100.00;93811.25;2113456;28;20388;-84
2021/10/11 02:14:01;;;;;;;11.23;8.18;;;;;;;-1.32;100.00;93811.47;2122588;27;20023;-83
2021/10/11 02:15:03;;;;;;;14.32;8.75;;;;;;;-1.35;100.00;93812.13;2129787;27;20023;-84
2021/10/11 02:16:04;;;;;;;13.25;8.27;;;;;;;-1.36;100.00;93813.19;2130683;27;20072;-83
2021/10/11 02:17:05;;;;;;;14.75;8.82;;;;;;;-1.42;100.00;93817.13;2130317;27;20429;-83
2021/10/11 02:18:06;;;;;;;14.00;9.10;;;;;;;-1.43;100.00;93813.72;2130548;27;20117;-82
2021/10/11 02:19:07;;;;;;;12.13;8.63;;;;;;;-1.41;100.00;93810.78;2121964;27;20023;-84
2021/10/11 02:20:09;;;;;;;11.68;8.05;;;;;;;-1.49;100.00;93816.88;2121925;27;20563;-83
2021/10/11 02:21:10;;;;;;;14.07;8.43;;;;;;;-1.64;100.00;93810.38;2121772;28;20144;-83
2021/10/11 02:22:11;;;;;;;16.48;8.55;;;;;;;-1.60;100.00;93812.03;2114036;27;20019;-84
2021/10/11 02:23:12;;;;;;;11.38;8.70;;;;;;;-1.51;100.00;93806.72;2121784;28;20460;-85
2021/10/11 02:24:13;;;;;;;13.13;8.15;;;;;;;-1.50;100.00;93807.47;2113415;28;20023;-83
2021/10/11 02:25:14;;;;;;;12.63;8.23;;;;;;;-1.45;100.00;93812.50;2113583;27;20081;-83
2021/10/11 02:26:15;;;;;;;11.65;8.32;;;;;;;-1.57;100.00;93803.53;2116220;28;20032;-84
2021/10/11 02:27:16;;;;;;;13.25;8.48;;;;;;;-1.56;100.00;93801.66;2104961;28;20035;-85
2021/10/11 02:28:16;;;;;;;11.23;7.93;;;;;;;-1.56;100.00;93805.06;2096578;28;20035;-83
2021/10/11 02:29:18;;;;;;;12.82;9.05;;;;;;;-1.60;100.00;93798.91;2104963;28;20074;-82
2021/10/11 02:30:19;;;;;;;13.13;8.90;;;;;;;-1.54;100.00;93812.59;2105256;28;20024;-85
2021/10/11 02:31:20;;;;;;;14.48;8.27;;;;;;;-1.45;100.00;93807.28;2105100;28;20115;-85
2021/10/11 02:32:22;;;;;;;14.63;8.13;;;;;;;-1.46;100.00;93803.13;2105245;28;20032;-83
2021/10/11 02:33:23;;;;;;;14.30;8.25;;;;;;;-1.48;100.00;93803.44;2109440;28;20024;-83
2021/10/11 02:34:24;;;;;;;11.98;8.43;;;;;;;-1.64;100.00;93792.03;2104998;28;20465;-85
2021/10/11 02:35:24;;;;;;;14.57;8.43;;;;;;;-1.61;100.00;93794.78;2113420;28;20033;-82
2021/10/11 02:36:25;;;;;;;10.90;8.18;;;;;;;-1.56;100.00;93794.56;2113349;28;20027;-84
2021/10/11 02:37:27;;;;;;;12.70;8.43;;;;;;;-1.56;100.00;93794.56;2113347;28;20024;-83
2021/10/11 02:38:28;;;;;;;10.95;8.55;;;;;;;-1.58;100.00;93795.97;2107952;28;20028;-82
2021/10/11 02:39:29;;;;;;;14.90;8.45;;;;;;;-1.55;100.00;93787.47;2122057;27;20032;-84
2021/10/11 02:40:30;;;;;;;26.13;9.07;;;;;;;-1.56;100.00;93788.56;2113249;28;20518;-84
2021/10/11 02:41:31;;;;;;;14.77;8.38;;;;;;;-1.57;100.00;93787.81;2113394;28;20102;-84
2021/10/11 02:42:32;;;;;;;13.60;7.82;;;;;;;-1.61;100.00;93784.28;2130504;27;20466;-83
2021/10/11 02:43:33;;;;;;;14.75;8.43;;;;;;;-1.69;100.00;93785.13;2121874;28;20062;-83
2021/10/11 02:44:34;;;;;;;16.52;8.75;;;;;;;-1.71;100.00;93781.28;2121860;27;20480;-84
2021/10/11 02:45:35;;;;;;;13.02;8.30;;;;;;;-1.74;100.00;93784.56;2130198;27;20515;-83
2021/10/11 02:46:36;;;;;;;11.57;8.40;;;;;;;-1.78;100.00;93785.19;2126058;27;20027;-85
2021/10/11 02:47:37;;;;;;;12.13;8.48;;;;;;;-1.82;100.00;93781.69;2125990;27;20110;-84
2021/10/11 02:48:38;;;;;;;11.77;8.15;;;;;;;-1.79;100.00;93785.53;2121916;27;20074;-84
2021/10/11 02:49:39;;;;;;;12.55;8.35;;;;;;;-1.84;100.00;93783.09;2113338;28;20489;-85
2021/10/11 02:50:40;;;;;;;12.25;9.18;;;;;;;-1.69;100.00;93782.50;2121903;27;20031;-85
2021/10/11 02:51:41;;;;;;;11.43;7.82;;;;;;;-1.65;100.00;93780.00;2121571;28;20070;-84
2021/10/11 02:52:42;;;;;;;11.90;7.95;;;;;;;-1.73;100.00;93781.63;2108297;28;20035;-83
2021/10/11 02:53:45;;;;;;;12.95;8.88;;;;;;;-1.79;100.00;93775.06;2109706;28;20110;-84
2021/10/11 02:54:46;;;;;;;14.73;8.38;;;;;;;-1.68;100.00;93772.78;2114187;27;20028;-84
2021/10/11 02:55:47;;;;;;;14.45;8.73;;;;;;;-1.69;100.00;93779.88;2121689;27;20030;-81
2021/10/11 02:56:48;;;;;;;12.30;8.02;;;;;;;-1.64;100.00;93778.91;2130408;27;20099;-84
2021/10/11 02:57:49;;;;;;;16.15;8.30;;;;;;;-1.67;100.00;93788.19;2121757;28;20026;-84
2021/10/11 02:58:50;;;;;;;10.82;8.10;;;;;;;-1.69;100.00;93782.50;2121478;27;20031;-85
2021/10/11 02:59:51;;;;;;;13.68;8.70;;;;;;;-1.60;100.00;93785.81;2113079;28;20392;-84
2021/10/11 03:00:51;;;;;;;11.43;8.02;;;;;;;-1.66;100.00;93781.88;2113246;27;20101;-87
2021/10/11 03:01:52;;;;;;;12.52;8.35;;;;;;;-1.85;100.00;93778.94;2121442;28;20019;-85
2021/10/11 03:02:53;;;;;;;13.43;8.45;;;;;;;-1.74;100.00;93774.84;2113125;28;20035;-84
2021/10/11 03:03:55;;;;;;;9.98;7.70;;;;;;;-1.73;100.00;93775.63;2111201;28;20056;-83
2021/10/11 03:04:57;;;;;;;11.73;8.43;;;;;;;-1.68;100.00;93781.41;2105314;28;20150;-84
2021/10/11 03:05:58;;;;;;;12.35;8.05;;;;;;;-1.67;100.00;93780.31;2112001;28;20019;-85
2021/10/11 03:07:02;;;;;;;12.88;7.78;;;;;;;-1.78;100.00;93771.34;2122206;27;20075;-84
2021/10/11 03:08:03;;;;;;;13.68;7.78;;;;;;;-1.79;100.00;93780.28;2121484;28;20530;-85
2021/10/11 03:09:04;;;;;;;11.40;7.97;;;;;;;-1.77;100.00;93780.72;2112626;28;20500;-85
2021/10/11 03:10:05;;;;;;;9.55;7.68;;;;;;;-1.66;100.00;93781.88;2113221;28;20024;-85
2021/10/11 03:11:06;;;;;;;11.77;7.82;;;;;;;-1.61;100.00;93789.53;2113094;28;20403;-84
2021/10/11 03:12:07;;;;;;;11.95;7.95;;;;;;;-1.58;100.00;93791.50;2113037;28;20047;-83
2021/10/11 03:13:08;;;;;;;13.05;8.68;;;;;;;-1.68;100.00;93786.66;2096284;28;20025;-84
2021/10/11 03:14:09;;;;;;;11.98;8.00;;;;;;;-1.71;100.00;93792.56;2104493;28;20058;-85
2021/10/11 03:15:10;;;;;;;10.85;8.02;;;;;;;-1.78;100.00;93797.53;2113055;28;20028;-85
2021/10/11 03:16:11;;;;;;;11.82;8.65;;;;;;;-1.78;100.00;93792.28;2122127;27;20391;-84
2021/10/11 03:17:12;;;;;;;10.57;7.50;;;;;;;-1.81;100.00;93787.69;2120698;28;20015;-84
2021/10/11 03:18:13;;;;;;;12.30;8.43;;;;;;;-1.82;100.00;93789.53;2113032;28;20027;-85
2021/10/11 03:19:14;;;;;;;12.65;8.13;;;;;;;-1.75;100.00;93793.53;2115790;28;20020;-83
2021/10/11 03:20:15;;;;;;;14.40;8.68;;;;;;;-1.72;100.00;93792.84;2115822;28;20103;-85
2021/10/11 03:21:21;;;;;;;12.18;8.35;;;;;;;-1.77;100.00;93791.19;2108402;28;20028;-85
2021/10/11 03:22:22;;;;;;;12.60;8.48;;;;;;;-1.73;100.00;93794.72;2118317;27;20019;-85
2021/10/11 03:23:23;;;;;;;11.20;8.02;;;;;;;-1.74;100.00;93795.81;2099085;28;20016;-85
2021/10/11 03:24:23;;;;;;;10.63;8.27;;;;;;;-1.79;100.00;93793.38;2098972;28;20025;-86
2021/10/11 03:25:25;;;;;;;12.30;8.23;;;;;;;-1.86;100.00;93787.88;2107331;28;20107;-86
2021/10/11 03:26:25;;;;;;;12.43;8.57;;;;;;;-1.78;100.00;93794.91;2114824;27;20080;-85
2021/10/11 03:27:26;;;;;;;12.98;8.43;;;;;;;-1.78;100.00;93794.91;2104581;28;20117;-85
2021/10/11 03:28:27;;;;;;;15.48;9.43;;;;;;;-1.78;100.00;93794.91;2110159;28;20043;-85
2021/10/11 03:29:28;;;;;;;17.27;9.20;;;;;;;-1.78;100.00;93789.69;2115805;28;20050;-86
2021/10/11 03:30:30;;;;;;;10.65;7.97;;;;;;;-1.77;100.00;93793.81;2107590;28;20020;-85
2021/10/11 03:31:31;;;;;;;13.60;8.65;;;;;;;-1.90;100.00;93789.63;2107664;28;20020;-85
2021/10/11 03:32:32;;;;;;;13.05;8.88;;;;;;;-1.99;100.00;93792.28;2107397;28;20035;-86
2021/10/11 03:33:33;;;;;;;11.45;7.97;;;;;;;-1.91;100.00;93790.72;2107472;28;20032;-84
2021/10/11 03:34:34;;;;;;;12.30;7.75;;;;;;;-2.00;100.00;93790.00;2115775;28;20020;-84
2021/10/11 03:35:35;;;;;;;11.40;7.75;;;;;;;-1.87;100.00;93784.50;2115660;28;20015;-84
2021/10/11 03:36:36;;;;;;;12.63;8.15;;;;;;;-1.84;100.00;93783.09;2107464;28;20024;-85
2021/10/11 03:37:37;;;;;;;12.93;7.60;;;;;;;-1.78;100.00;93785.19;2107144;28;20407;-85
2021/10/11 03:38:38;;;;;;;9.15;7.05;;;;;;;-1.77;100.00;93785.97;2094636;28;20025;-85
2021/10/11 03:39:38;;;;;;;12.98;8.13;;;;;;;-1.79;100.00;93783.66;2107742;28;20475;-86
2021/10/11 03:40:39;;;;;;;14.23;8.57;;;;;;;-1.73;100.00;93786.09;2111011;28;20120;-84
2021/10/11 03:41:40;;;;;;;10.70;7.80;;;;;;;-1.70;100.00;93793.31;2115571;28;20525;-85
2021/10/11 03:42:41;;;;;;;11.15;7.90;;;;;;;-1.85;100.00;93792.03;2107295;28;20024;-85
2021/10/11 03:43:42;;;;;;;13.55;7.65;;;;;;;-1.94;100.00;93784.25;2120634;27;20048;-86
2021/10/11 03:44:43;;;;;;;10.80;7.68;;;;;;;-1.86;100.00;93787.88;2115768;27;20016;-87
2021/10/11 03:45:44;;;;;;;11.77;7.97;;;;;;;-1.86;100.00;93782.66;2107039;28;20022;-86
2021/10/11 03:46:45;;;;;;;9.38;7.60;;;;;;;-1.75;100.00;93788.28;2098794;28;20024;-85
2021/10/11 03:47:46;;;;;;;9.88;7.45;;;;;;;-1.73;100.00;93792.09;2090634;28;20021;-84
2021/10/11 03:48:47;;;;;;;10.90;7.70;;;;;;;-1.74;100.00;93798.44;2098952;28;20032;-85
2021/10/11 03:49:48;;;;;;;12.48;7.50;;;;;;;-1.77;100.00;93791.97;2098786;28;20055;-87
2021/10/11 03:50:49;;;;;;;9.90;7.22;;;;;;;-1.82;100.00;93794.78;2101876;28;20093;-85
2021/10/11 03:51:50;;;;;;;9.63;7.35;;;;;;;-1.73;100.00;93789.47;2107157;28;20035;-86
2021/10/11 03:52:51;;;;;;;13.55;8.63;;;;;;;-1.79;100.00;93791.53;2107090;28;20468;-85
2021/10/11 03:53:51;;;;;;;15.18;7.90;;;;;;;-1.92;100.00;93786.56;2109330;28;20023;-87
2021/10/11 03:54:52;;;;;;;9.07;6.50;;;;;;;-1.91;100.00;93798.56;2107196;28;20024;-85
2021/10/11 03:55:53;;;;;;;14.98;7.63;;;;;;;-1.84;100.00;93791.72;2107626;28;20380;-86
2021/10/11 03:56:54;;;;;;;10.43;7.18;;;;;;;-1.87;100.00;93783.75;2107094;28;20023;-86
2021/10/11 03:57:55;;;;;;;11.75;7.22;;;;;;;-1.87;100.00;93788.97;2098681;28;20020;-86
2021/10/11 03:58:56;;;;;;;9.25;6.95;;;;;;;-1.96;100.00;93796.13;2098677;28;20026;-87
2021/10/11 03:59:57;;;;;;;10.88;7.15;;;;;;;-1.95;100.00;93787.94;2107051;28;20103;-86
2021/10/11 04:00:58;;;;;;;12.07;6.82;;;;;;;-1.98;100.00;93791.19;2090519;28;20024;-86
2021/10/11 04:01:58;;;;;;;8.52;6.45;;;;;;;-1.95;100.00;93789.81;2098792;28;20052;-87
2021/10/11 04:03:03;;;;;;;14.25;6.82;;;;;;;-2.01;100.00;93793.72;2098740;28;20601;-86
2021/10/11 04:04:06;;;;;;;9.80;6.47;;;;;;;-1.97;100.00;93784.13;2099769;28;20035;-85
2021/10/11 04:05:08;;;;;;;11.02;6.60;;;;;;;-2.07;100.00;93788.66;2115878;27;20120;-85
2021/10/11 04:06:09;;;;;;;9.57;6.90;;;;;;;-2.05;100.00;93778.63;2107003;28;20500;-86
2021/10/11 04:07:15;;;;;;;8.05;6.53;;;;;;;-1.98;100.00;93785.19;2098517;28;20035;-86
2021/10/11 04:08:20;;;;;;;8.82;6.50;;;;;;;-1.95;100.00;93774.84;2108048;28;20024;-86
2021/10/11 04:09:26;;;;;;;9.88;7.03;;;;;;;-2.01;100.00;93778.00;2100728;28;20055;-88
2021/10/11 04:10:31;;;;;;;10.27;6.90;;;;;;;-1.97;100.00;93778.91;2114429;27;20548;-85
2021/10/11 04:11:32;;;;;;;9.55;7.00;;;;;;;-2.00;100.00;93772.44;2109646;28;20015;-86
2021/10/11 04:12:34;;;;;;;10.02;6.75;;;;;;;-2.05;100.00;93773.41;2107098;28;20106;-85
2021/10/11 04:13:37;;;;;;;11.43;6.88;;;;;;;-2.01;100.00;93773.53;2115409;28;20095;-86
2021/10/11 04:14:37;;;;;;;10.05;7.60;;;;;;;-1.92;100.00;93769.00;2098806;28;20024;-85
2021/10/11 04:15:38;;;;;;;11.50;7.72;;;;;;;-1.92;100.00;93768.22;2090399;28;20021;-86
2021/10/11 04:16:39;;;;;;;10.93;7.93;;;;;;;-1.92;100.00;93771.59;2098765;28;20094;-86
2021/10/11 04:17:40;;;;;;;15.20;9.10;;;;;;;-1.88;100.00;93764.63;2098574;28;20028;-85
2021/10/11 04:18:41;;;;;;;10.05;7.97;;;;;;;-1.91;100.00;93775.75;2090373;28;20032;-85
2021/10/11 04:19:42;;;;;;;14.23;8.05;;;;;;;-1.93;100.00;93762.22;2103563;28;20110;-85
2021/10/11 04:20:44;;;;;;;14.80;8.40;;;;;;;-1.92;100.00;93763.75;2111781;28;20016;-85
2021/10/11 04:21:45;;;;;;;11.48;8.25;;;;;;;-1.94;100.00;93765.13;2106986;28;20027;-86
2021/10/11 04:22:46;;;;;;;10.15;7.72;;;;;;;-1.84;100.00;93770.78;2098423;28;20020;-84
2021/10/11 04:23:47;;;;;;;10.40;8.07;;;;;;;-1.84;100.00;93770.78;2090430;28;20051;-86
2021/10/11 04:24:48;;;;;;;12.35;7.22;;;;;;;-1.86;100.00;93772.94;2118171;27;20110;-85
2021/10/11 04:25:49;;;;;;;8.00;7.20;;;;;;;-1.89;100.00;93770.19;2125933;27;20027;-87
2021/10/11 04:26:50;;;;;;;9.32;6.68;;;;;;;-1.91;100.00;93769.75;2115317;28;20054;-87
2021/10/11 04:27:51;;;;;;;10.38;8.30;;;;;;;-2.00;100.00;93772.44;2115268;28;20023;-86
2021/10/11 04:28:52;;;;;;;8.88;6.47;;;;;;;-2.04;100.00;93769.69;2115294;28;20019;-87
2021/10/11 04:29:53;;;;;;;9.55;6.32;;;;;;;-2.09;100.00;93775.13;2098536;28;20052;-87
2021/10/11 04:30:53;;;;;;;9.18;5.80;;;;;;;-2.09;100.00;93776.97;2108109;28;20027;-87
2021/10/11 04:31:54;;;;;;;8.68;6.57;;;;;;;-2.09;100.00;93777.75;2106881;28;20463;-86
2021/10/11 04:32:55;;;;;;;9.85;6.82;;;;;;;-2.17;100.00;93769.94;2115379;28;20015;-88
2021/10/11 04:33:56;;;;;;;10.52;7.65;;;;;;;-2.11;100.00;93777.31;2123817;27;20023;-85
2021/10/11 04:34:57;;;;;;;12.05;9.13;;;;;;;-2.16;100.00;93772.22;2115275;28;20024;-88
2021/10/11 04:36:01;;;;;;;15.88;11.30;;;;;;;-2.09;100.00;93782.22;2107107;28;20110;-87
2021/10/11 04:37:02;;;;;;;14.85;11.25;;;;;;;-2.11;100.00;93773.88;2115687;28;20097;-85
2021/10/11 04:38:04;;;;;;;9.27;8.02;;;;;;;-2.11;100.00;93777.31;2115186;28;20515;-85
2021/10/11 04:39:05;;;;;;;10.95;7.25;;;;;;;-2.09;100.00;93776.97;2114811;28;20484;-87
2021/10/11 04:40:07;;;;;;;9.25;6.75;;;;;;;-2.06;100.00;93778.97;2106917;28;20412;-86
2021/10/11 04:41:08;;;;;;;7.88;7.05;;;;;;;-2.12;100.00;93773.13;2106906;28;20023;-87
2021/10/11 04:42:09;;;;;;;9.50;6.93;;;;;;;-2.16;100.00;93772.22;2106868;28;20277;-86
2021/10/11 04:43:10;;;;;;;7.15;6.47;;;;;;;-2.13;100.00;93778.69;2106928;28;20031;-87
2021/10/11 04:44:11;;;;;;;9.52;6.70;;;;;;;-2.12;100.00;93772.38;2115288;28;20020;-86